Terminal Aerodrome Forecast
Issued by NWS

Current Version | Previous Version | Text Only | Print | Product List | Glossary On
Versions: 1 2 3 4 5 6 7 8 9 10 11 12 13 14 15 16 17
000
FTUS43 KIND 291900 AAA
TAFBMG
TAF AMD
KBMG 291902Z 2919/3018 30015G25KT 3SM BR OVC009
     FM292000 30015G25KT 5SM BR OVC012
     FM292100 30015G25KT P6SM OVC015
     FM301500 32012G20KT P6SM BKN020=

USA.gov is the U.S. government's official web portal to all federal, state and local government web resources and services.